sensor_id;sensor_type;location;lat;lon;timestamp;temperature;humidity
54126;DHT22;40360;52.992;6.796;2024-03-17T00:01:08;3.30;99.90
54126;DHT22;40360;52.992;6.796;2024-03-17T00:03:33;3.30;99.90
54126;DHT22;40360;52.992;6.796;2024-03-17T00:06:00;3.30;99.90
54126;DHT22;40360;52.992;6.796;2024-03-17T00:08:26;3.30;99.90
54126;DHT22;40360;52.992;6.796;2024-03-17T00:10:56;3.30;99.90
54126;DHT22;40360;52.992;6.796;2024-03-17T00:13:22;3.30;99.90
54126;DHT22;40360;52.992;6.796;2024-03-17T00:15:49;3.30;99.90
54126;DHT22;40360;52.992;6.796;2024-03-17T00:18:16;3.30;99.90
54126;DHT22;40360;52.992;6.796;2024-03-17T00:20:43;3.20;99.90
54126;DHT22;40360;52.992;6.796;2024-03-17T00:23:17;3.20;99.90
54126;DHT22;40360;52.992;6.796;2024-03-17T00:25:48;3.20;99.90
54126;DHT22;40360;52.992;6.796;2024-03-17T00:28:16;3.10;99.90
54126;DHT22;40360;52.992;6.796;2024-03-17T00:30:42;3.00;99.90
54126;DHT22;40360;52.992;6.796;2024-03-17T00:33:08;3.00;99.90
54126;DHT22;40360;52.992;6.796;2024-03-17T00:35:33;2.90;99.90
54126;DHT22;40360;52.992;6.796;2024-03-17T00:37:59;2.90;99.90
54126;DHT22;40360;52.992;6.796;2024-03-17T00:40:25;2.90;99.90
54126;DHT22;40360;52.992;6.796;2024-03-17T00:42:51;2.90;99.90
54126;DHT22;40360;52.992;6.796;2024-03-17T00:45:19;2.90;99.90
54126;DHT22;40360;52.992;6.796;2024-03-17T00:47:45;2.80;99.90
54126;DHT22;40360;52.992;6.796;2024-03-17T00:50:12;2.80;99.90
54126;DHT22;40360;52.992;6.796;2024-03-17T00:52:38;2.70;99.90
54126;DHT22;40360;52.992;6.796;2024-03-17T00:55:04;2.60;99.90
54126;DHT22;40360;52.992;6.796;2024-03-17T00:57:30;2.50;99.90
54126;DHT22;40360;52.992;6.796;2024-03-17T00:59:56;2.50;99.90
54126;DHT22;40360;52.992;6.796;2024-03-17T01:02:26;2.50;99.90
54126;DHT22;40360;52.992;6.796;2024-03-17T01:04:51;2.50;99.90
54126;DHT22;40360;52.992;6.796;2024-03-17T01:07:17;2.40;99.90
54126;DHT22;40360;52.992;6.796;2024-03-17T01:09:47;2.40;99.90
54126;DHT22;40360;52.992;6.796;2024-03-17T01:12:19;2.40;99.90
54126;DHT22;40360;52.992;6.796;2024-03-17T01:14:54;2.30;99.90
54126;DHT22;40360;52.992;6.796;2024-03-17T01:17:26;2.30;99.90
54126;DHT22;40360;52.992;6.796;2024-03-17T01:19:55;2.30;99.90
54126;DHT22;40360;52.992;6.796;2024-03-17T01:22:25;2.30;99.90
54126;DHT22;40360;52.992;6.796;2024-03-17T01:24:51;2.30;99.90
54126;DHT22;40360;52.992;6.796;2024-03-17T01:27:23;2.30;99.90
54126;DHT22;40360;52.992;6.796;2024-03-17T01:29:49;2.40;99.90
54126;DHT22;40360;52.992;6.796;2024-03-17T01:32:15;2.30;99.90
54126;DHT22;40360;52.992;6.796;2024-03-17T01:34:44;2.30;99.90
54126;DHT22;40360;52.992;6.796;2024-03-17T01:37:20;2.30;99.90
54126;DHT22;40360;52.992;6.796;2024-03-17T01:39:47;2.30;99.90
54126;DHT22;40360;52.992;6.796;2024-03-17T01:42:18;2.20;99.90
54126;DHT22;40360;52.992;6.796;2024-03-17T01:44:44;2.20;99.90
54126;DHT22;40360;52.992;6.796;2024-03-17T01:47:10;2.20;99.90
54126;DHT22;40360;52.992;6.796;2024-03-17T01:49:37;2.30;99.90
54126;DHT22;40360;52.992;6.796;2024-03-17T01:52:06;2.20;99.90
54126;DHT22;40360;52.992;6.796;2024-03-17T01:54:35;2.20;99.90
54126;DHT22;40360;52.992;6.796;2024-03-17T01:57:07;2.10;99.90
54126;DHT22;40360;52.992;6.796;2024-03-17T01:59:34;2.10;99.90
54126;DHT22;40360;52.992;6.796;2024-03-17T02:02:09;2.10;99.90
54126;DHT22;40360;52.992;6.796;2024-03-17T02:04:39;2.00;99.90
54126;DHT22;40360;52.992;6.796;2024-03-17T02:07:05;2.10;99.90
54126;DHT22;40360;52.992;6.796;2024-03-17T02:09:31;2.10;99.90
54126;DHT22;40360;52.992;6.796;2024-03-17T02:11:57;2.10;99.90
54126;DHT22;40360;52.992;6.796;2024-03-17T02:14:27;2.10;99.90
54126;DHT22;40360;52.992;6.796;2024-03-17T02:16:53;2.10;99.90
54126;DHT22;40360;52.992;6.796;2024-03-17T02:19:20;2.10;99.90
54126;DHT22;40360;52.992;6.796;2024-03-17T02:21:53;2.20;99.90
54126;DHT22;40360;52.992;6.796;2024-03-17T02:24:22;2.20;99.90
54126;DHT22;40360;52.992;6.796;2024-03-17T02:26:52;2.10;99.90
54126;DHT22;40360;52.992;6.796;2024-03-17T02:29:19;2.10;99.90
54126;DHT22;40360;52.992;6.796;2024-03-17T02:31:45;2.10;99.90
54126;DHT22;40360;52.992;6.796;2024-03-17T02:34:15;2.00;99.90
54126;DHT22;40360;52.992;6.796;2024-03-17T02:36:41;2.00;99.90
54126;DHT22;40360;52.992;6.796;2024-03-17T02:39:07;2.00;99.90
54126;DHT22;40360;52.992;6.796;2024-03-17T02:41:56;2.00;99.90
54126;DHT22;40360;52.992;6.796;2024-03-17T02:44:22;2.00;99.90
54126;DHT22;40360;52.992;6.796;2024-03-17T02:47:00;1.90;99.90
54126;DHT22;40360;52.992;6.796;2024-03-17T02:49:27;2.00;99.90
54126;DHT22;40360;52.992;6.796;2024-03-17T02:52:04;1.90;99.90
54126;DHT22;40360;52.992;6.796;2024-03-17T02:54:31;1.90;99.90
54126;DHT22;40360;52.992;6.796;2024-03-17T02:57:07;1.90;99.90
54126;DHT22;40360;52.992;6.796;2024-03-17T02:59:35;1.90;99.90
54126;DHT22;40360;52.992;6.796;2024-03-17T03:02:01;1.90;99.90
54126;DHT22;40360;52.992;6.796;2024-03-17T03:04:30;1.90;99.90
54126;DHT22;40360;52.992;6.796;2024-03-17T03:07:00;1.90;99.90
54126;DHT22;40360;52.992;6.796;2024-03-17T03:09:49;1.90;99.90
54126;DHT22;40360;52.992;6.796;2024-03-17T03:12:17;1.80;99.90
54126;DHT22;40360;52.992;6.796;2024-03-17T03:14:44;1.90;99.90
54126;DHT22;40360;52.992;6.796;2024-03-17T03:17:10;1.90;99.90
54126;DHT22;40360;52.992;6.796;2024-03-17T03:19:36;1.90;99.90
54126;DHT22;40360;52.992;6.796;2024-03-17T03:22:01;1.90;99.90
54126;DHT22;40360;52.992;6.796;2024-03-17T03:24:27;1.90;99.90
54126;DHT22;40360;52.992;6.796;2024-03-17T03:26:53;1.90;99.90
54126;DHT22;40360;52.992;6.796;2024-03-17T03:29:18;2.00;99.90
54126;DHT22;40360;52.992;6.796;2024-03-17T03:31:45;2.00;99.90
54126;DHT22;40360;52.992;6.796;2024-03-17T03:34:10;2.10;99.90
54126;DHT22;40360;52.992;6.796;2024-03-17T03:36:43;2.10;99.90
54126;DHT22;40360;52.992;6.796;2024-03-17T03:39:09;2.20;99.90
54126;DHT22;40360;52.992;6.796;2024-03-17T03:41:39;2.30;99.90
54126;DHT22;40360;52.992;6.796;2024-03-17T03:44:15;2.30;99.90
54126;DHT22;40360;52.992;6.796;2024-03-17T03:46:41;2.40;99.90
54126;DHT22;40360;52.992;6.796;2024-03-17T03:49:07;2.40;99.90
54126;DHT22;40360;52.992;6.796;2024-03-17T03:51:33;2.40;99.90
54126;DHT22;40360;52.992;6.796;2024-03-17T03:53:59;2.40;99.90
54126;DHT22;40360;52.992;6.796;2024-03-17T03:56:25;2.40;99.90
54126;DHT22;40360;52.992;6.796;2024-03-17T03:58:51;2.40;99.90
54126;DHT22;40360;52.992;6.796;2024-03-17T04:01:20;2.40;99.90
54126;DHT22;40360;52.992;6.796;2024-03-17T04:03:48;2.50;99.90
54126;DHT22;40360;52.992;6.796;2024-03-17T04:06:21;2.50;99.90
54126;DHT22;40360;52.992;6.796;2024-03-17T04:08:46;2.50;99.90
54126;DHT22;40360;52.992;6.796;2024-03-17T04:11:12;2.50;99.90
54126;DHT22;40360;52.992;6.796;2024-03-17T04:13:38;2.50;99.90
54126;DHT22;40360;52.992;6.796;2024-03-17T04:16:07;2.50;99.90
54126;DHT22;40360;52.992;6.796;2024-03-17T04:18:47;2.60;99.90
54126;DHT22;40360;52.992;6.796;2024-03-17T04:21:16;2.60;99.90
54126;DHT22;40360;52.992;6.796;2024-03-17T04:23:46;2.70;99.90
54126;DHT22;40360;52.992;6.796;2024-03-17T04:26:13;2.70;99.90
54126;DHT22;40360;52.992;6.796;2024-03-17T04:28:40;2.80;99.90
54126;DHT22;40360;52.992;6.796;2024-03-17T04:31:06;2.80;99.90
54126;DHT22;40360;52.992;6.796;2024-03-17T04:33:43;2.90;99.90
54126;DHT22;40360;52.992;6.796;2024-03-17T04:36:20;2.90;99.90
54126;DHT22;40360;52.992;6.796;2024-03-17T04:38:45;3.00;99.90
54126;DHT22;40360;52.992;6.796;2024-03-17T04:41:16;3.00;99.90
54126;DHT22;40360;52.992;6.796;2024-03-17T04:43:45;3.00;99.90
54126;DHT22;40360;52.992;6.796;2024-03-17T04:46:11;3.00;99.90
54126;DHT22;40360;52.992;6.796;2024-03-17T04:48:39;3.10;99.90
54126;DHT22;40360;52.992;6.796;2024-03-17T04:51:05;3.10;99.90
54126;DHT22;40360;52.992;6.796;2024-03-17T04:53:30;3.10;99.90
54126;DHT22;40360;52.992;6.796;2024-03-17T04:56:00;3.20;99.90
54126;DHT22;40360;52.992;6.796;2024-03-17T04:58:26;3.30;99.90
54126;DHT22;40360;52.992;6.796;2024-03-17T05:00:52;3.20;99.90
54126;DHT22;40360;52.992;6.796;2024-03-17T05:03:17;3.30;99.90
54126;DHT22;40360;52.992;6.796;2024-03-17T05:05:43;3.30;99.90
54126;DHT22;40360;52.992;6.796;2024-03-17T05:08:09;3.30;99.90
54126;DHT22;40360;52.992;6.796;2024-03-17T05:10:34;3.30;99.90
54126;DHT22;40360;52.992;6.796;2024-03-17T05:13:06;3.40;99.90
54126;DHT22;40360;52.992;6.796;2024-03-17T05:15:39;3.30;99.90
54126;DHT22;40360;52.992;6.796;2024-03-17T05:18:06;3.40;99.90
54126;DHT22;40360;52.992;6.796;2024-03-17T05:20:37;3.40;99.90
54126;DHT22;40360;52.992;6.796;2024-03-17T05:23:08;3.40;99.90
54126;DHT22;40360;52.992;6.796;2024-03-17T05:25:51;3.40;99.90
54126;DHT22;40360;52.992;6.796;2024-03-17T05:28:17;3.50;99.90
54126;DHT22;40360;52.992;6.796;2024-03-17T05:30:43;3.50;99.90
54126;DHT22;40360;52.992;6.796;2024-03-17T05:33:09;3.50;99.90
54126;DHT22;40360;52.992;6.796;2024-03-17T05:35:35;3.50;99.90
54126;DHT22;40360;52.992;6.796;2024-03-17T05:38:01;3.50;99.90
54126;DHT22;40360;52.992;6.796;2024-03-17T05:40:27;3.50;99.90
54126;DHT22;40360;52.992;6.796;2024-03-17T05:42:53;3.60;99.90
54126;DHT22;40360;52.992;6.796;2024-03-17T05:45:19;3.60;99.90
54126;DHT22;40360;52.992;6.796;2024-03-17T05:47:45;3.60;99.90
54126;DHT22;40360;52.992;6.796;2024-03-17T05:50:11;3.60;99.90
54126;DHT22;40360;52.992;6.796;2024-03-17T05:52:38;3.60;99.90
54126;DHT22;40360;52.992;6.796;2024-03-17T05:55:04;3.60;99.90
54126;DHT22;40360;52.992;6.796;2024-03-17T05:57:29;3.70;99.90
54126;DHT22;40360;52.992;6.796;2024-03-17T05:59:55;3.70;99.90
54126;DHT22;40360;52.992;6.796;2024-03-17T06:02:21;3.70;99.90
54126;DHT22;40360;52.992;6.796;2024-03-17T06:04:46;3.80;99.90
54126;DHT22;40360;52.992;6.796;2024-03-17T06:07:12;3.80;99.90
54126;DHT22;40360;52.992;6.796;2024-03-17T06:09:38;3.90;99.90
54126;DHT22;40360;52.992;6.796;2024-03-17T06:12:04;3.90;99.90
54126;DHT22;40360;52.992;6.796;2024-03-17T06:14:29;3.90;99.90
54126;DHT22;40360;52.992;6.796;2024-03-17T06:16:56;3.90;99.90
54126;DHT22;40360;52.992;6.796;2024-03-17T06:19:22;4.00;99.90
54126;DHT22;40360;52.992;6.796;2024-03-17T06:21:48;3.90;99.90
54126;DHT22;40360;52.992;6.796;2024-03-17T06:24:26;3.90;99.90
54126;DHT22;40360;52.992;6.796;2024-03-17T06:26:53;4.00;99.90
54126;DHT22;40360;52.992;6.796;2024-03-17T06:29:19;4.00;99.90
54126;DHT22;40360;52.992;6.796;2024-03-17T06:31:46;4.00;99.90
54126;DHT22;40360;52.992;6.796;2024-03-17T06:34:12;4.00;99.90
54126;DHT22;40360;52.992;6.796;2024-03-17T06:36:40;4.00;99.90
54126;DHT22;40360;52.992;6.796;2024-03-17T06:39:06;4.10;99.90
54126;DHT22;40360;52.992;6.796;2024-03-17T06:41:35;4.10;99.90
54126;DHT22;40360;52.992;6.796;2024-03-17T06:44:18;4.20;99.90
54126;DHT22;40360;52.992;6.796;2024-03-17T06:46:46;4.20;99.90
54126;DHT22;40360;52.992;6.796;2024-03-17T06:49:15;4.30;99.90
54126;DHT22;40360;52.992;6.796;2024-03-17T06:51:43;4.40;99.90
54126;DHT22;40360;52.992;6.796;2024-03-17T06:54:10;4.50;99.90
54126;DHT22;40360;52.992;6.796;2024-03-17T06:56:48;4.60;99.90
54126;DHT22;40360;52.992;6.796;2024-03-17T06:59:18;4.80;99.90
54126;DHT22;40360;52.992;6.796;2024-03-17T07:01:46;4.90;99.90
54126;DHT22;40360;52.992;6.796;2024-03-17T07:04:13;5.00;99.90
54126;DHT22;40360;52.992;6.796;2024-03-17T07:06:39;5.10;99.90
54126;DHT22;40360;52.992;6.796;2024-03-17T07:09:08;5.10;99.90
54126;DHT22;40360;52.992;6.796;2024-03-17T07:11:35;5.20;99.90
54126;DHT22;40360;52.992;6.796;2024-03-17T07:14:10;5.30;99.90
54126;DHT22;40360;52.992;6.796;2024-03-17T07:16:43;5.30;99.90
54126;DHT22;40360;52.992;6.796;2024-03-17T07:19:08;5.40;99.90
54126;DHT22;40360;52.992;6.796;2024-03-17T07:21:34;5.50;99.90
54126;DHT22;40360;52.992;6.796;2024-03-17T07:24:00;5.50;99.90
54126;DHT22;40360;52.992;6.796;2024-03-17T07:26:30;5.60;99.90
54126;DHT22;40360;52.992;6.796;2024-03-17T07:28:56;5.70;99.90
54126;DHT22;40360;52.992;6.796;2024-03-17T07:31:21;5.70;99.90
54126;DHT22;40360;52.992;6.796;2024-03-17T07:33:54;5.90;99.90
54126;DHT22;40360;52.992;6.796;2024-03-17T07:36:20;5.90;99.90
54126;DHT22;40360;52.992;6.796;2024-03-17T07:38:47;6.00;99.90
54126;DHT22;40360;52.992;6.796;2024-03-17T07:41:13;6.10;99.90
54126;DHT22;40360;52.992;6.796;2024-03-17T07:43:39;6.20;99.90
54126;DHT22;40360;52.992;6.796;2024-03-17T07:46:06;6.30;99.90
54126;DHT22;40360;52.992;6.796;2024-03-17T07:48:34;6.30;99.90
54126;DHT22;40360;52.992;6.796;2024-03-17T07:51:11;6.40;99.90
54126;DHT22;40360;52.992;6.796;2024-03-17T07:53:39;6.40;99.90
54126;DHT22;40360;52.992;6.796;2024-03-17T07:56:09;6.40;99.90
54126;DHT22;40360;52.992;6.796;2024-03-17T07:58:38;6.50;99.90
54126;DHT22;40360;52.992;6.796;2024-03-17T08:01:08;6.60;99.90
54126;DHT22;40360;52.992;6.796;2024-03-17T08:03:41;6.70;99.90
54126;DHT22;40360;52.992;6.796;2024-03-17T08:06:09;6.80;99.90
54126;DHT22;40360;52.992;6.796;2024-03-17T08:08:39;7.00;99.90
54126;DHT22;40360;52.992;6.796;2024-03-17T08:11:06;7.10;99.90
54126;DHT22;40360;52.992;6.796;2024-03-17T08:13:32;7.20;99.90
54126;DHT22;40360;52.992;6.796;2024-03-17T08:16:05;7.30;99.90
54126;DHT22;40360;52.992;6.796;2024-03-17T08:18:32;7.30;99.90
54126;DHT22;40360;52.992;6.796;2024-03-17T08:21:00;7.40;99.90
54126;DHT22;40360;52.992;6.796;2024-03-17T08:23:27;7.50;99.90
54126;DHT22;40360;52.992;6.796;2024-03-17T08:25:57;7.50;99.90
54126;DHT22;40360;52.992;6.796;2024-03-17T08:28:23;7.40;99.90
54126;DHT22;40360;52.992;6.796;2024-03-17T08:31:00;7.50;99.90
54126;DHT22;40360;52.992;6.796;2024-03-17T08:33:27;7.50;99.90
54126;DHT22;40360;52.992;6.796;2024-03-17T08:35:57;7.50;99.90
54126;DHT22;40360;52.992;6.796;2024-03-17T08:38:25;7.50;99.90
54126;DHT22;40360;52.992;6.796;2024-03-17T08:41:07;7.60;99.90
54126;DHT22;40360;52.992;6.796;2024-03-17T08:43:43;8.10;99.90
54126;DHT22;40360;52.992;6.796;2024-03-17T09:02:30;8.00;99.90
54126;DHT22;40360;52.992;6.796;2024-03-17T09:05:02;8.10;99.90
54126;DHT22;40360;52.992;6.796;2024-03-17T09:07:31;8.10;99.90
54126;DHT22;40360;52.992;6.796;2024-03-17T09:10:06;8.20;99.90
54126;DHT22;40360;52.992;6.796;2024-03-17T09:12:34;8.20;99.90
54126;DHT22;40360;52.992;6.796;2024-03-17T09:15:00;8.30;99.90
54126;DHT22;40360;52.992;6.796;2024-03-17T09:17:25;8.30;99.90
54126;DHT22;40360;52.992;6.796;2024-03-17T09:19:51;8.40;99.90
54126;DHT22;40360;52.992;6.796;2024-03-17T09:22:17;8.40;99.90
54126;DHT22;40360;52.992;6.796;2024-03-17T09:24:43;8.50;99.90
54126;DHT22;40360;52.992;6.796;2024-03-17T09:27:09;8.50;99.90
54126;DHT22;40360;52.992;6.796;2024-03-17T09:29:36;8.50;99.90
54126;DHT22;40360;52.992;6.796;2024-03-17T09:32:04;8.60;99.90
54126;DHT22;40360;52.992;6.796;2024-03-17T09:34:30;8.60;99.90
54126;DHT22;40360;52.992;6.796;2024-03-17T09:37:08;8.70;99.90
54126;DHT22;40360;52.992;6.796;2024-03-17T09:39:34;8.80;99.90
54126;DHT22;40360;52.992;6.796;2024-03-17T09:42:00;8.80;99.90
54126;DHT22;40360;52.992;6.796;2024-03-17T09:44:40;9.00;99.90
54126;DHT22;40360;52.992;6.796;2024-03-17T09:47:07;9.10;99.90
54126;DHT22;40360;52.992;6.796;2024-03-17T09:49:37;9.20;99.90
54126;DHT22;40360;52.992;6.796;2024-03-17T09:52:03;9.20;99.90
54126;DHT22;40360;52.992;6.796;2024-03-17T09:54:30;9.40;99.90
54126;DHT22;40360;52.992;6.796;2024-03-17T09:56:56;9.50;99.90
54126;DHT22;40360;52.992;6.796;2024-03-17T09:59:22;9.70;99.90
54126;DHT22;40360;52.992;6.796;2024-03-17T10:01:50;9.90;99.90
54126;DHT22;40360;52.992;6.796;2024-03-17T10:04:31;10.10;99.90
54126;DHT22;40360;52.992;6.796;2024-03-17T10:07:07;10.30;99.90
54126;DHT22;40360;52.992;6.796;2024-03-17T10:09:40;10.40;99.90
54126;DHT22;40360;52.992;6.796;2024-03-17T10:12:28;10.40;99.90
54126;DHT22;40360;52.992;6.796;2024-03-17T10:15:00;10.50;99.90
54126;DHT22;40360;52.992;6.796;2024-03-17T10:17:32;10.50;99.90
54126;DHT22;40360;52.992;6.796;2024-03-17T10:20:18;10.60;99.90
54126;DHT22;40360;52.992;6.796;2024-03-17T10:23:04;10.70;99.90
54126;DHT22;40360;52.992;6.796;2024-03-17T10:25:38;10.90;99.90
54126;DHT22;40360;52.992;6.796;2024-03-17T10:28:13;11.00;99.90
54126;DHT22;40360;52.992;6.796;2024-03-17T10:31:03;11.10;99.90
54126;DHT22;40360;52.992;6.796;2024-03-17T10:33:29;11.20;99.90
54126;DHT22;40360;52.992;6.796;2024-03-17T10:36:04;11.10;99.90
54126;DHT22;40360;52.992;6.796;2024-03-17T10:38:31;11.20;99.90
54126;DHT22;40360;52.992;6.796;2024-03-17T10:40:56;11.20;99.90
54126;DHT22;40360;52.992;6.796;2024-03-17T10:43:22;11.20;99.90
54126;DHT22;40360;52.992;6.796;2024-03-17T10:45:54;11.20;99.90
54126;DHT22;40360;52.992;6.796;2024-03-17T10:48:28;11.20;99.90
54126;DHT22;40360;52.992;6.796;2024-03-17T10:50:59;11.20;99.90
54126;DHT22;40360;52.992;6.796;2024-03-17T10:53:28;11.20;99.90
54126;DHT22;40360;52.992;6.796;2024-03-17T10:56:04;11.10;99.90
54126;DHT22;40360;52.992;6.796;2024-03-17T10:58:36;11.10;99.90
54126;DHT22;40360;52.992;6.796;2024-03-17T11:01:13;11.10;99.90
54126;DHT22;40360;52.992;6.796;2024-03-17T11:03:39;11.20;99.90
54126;DHT22;40360;52.992;6.796;2024-03-17T11:06:06;11.10;99.90
54126;DHT22;40360;52.992;6.796;2024-03-17T11:08:34;11.20;99.90
54126;DHT22;40360;52.992;6.796;2024-03-17T11:11:01;11.20;99.90
54126;DHT22;40360;52.992;6.796;2024-03-17T11:13:31;11.20;99.90
54126;DHT22;40360;52.992;6.796;2024-03-17T11:15:58;11.20;99.90
54126;DHT22;40360;52.992;6.796;2024-03-17T11:18:34;11.20;99.90
54126;DHT22;40360;52.992;6.796;2024-03-17T11:21:03;11.20;99.90
54126;DHT22;40360;52.992;6.796;2024-03-17T11:23:41;11.20;99.90
54126;DHT22;40360;52.992;6.796;2024-03-17T11:26:13;11.20;99.90
54126;DHT22;40360;52.992;6.796;2024-03-17T11:28:52;11.20;99.90
54126;DHT22;40360;52.992;6.796;2024-03-17T11:31:38;11.20;99.90
54126;DHT22;40360;52.992;6.796;2024-03-17T11:34:42;11.30;99.90
54126;DHT22;40360;52.992;6.796;2024-03-17T11:37:42;11.30;99.90
54126;DHT22;40360;52.992;6.796;2024-03-17T11:40:24;11.30;99.90
54126;DHT22;40360;52.992;6.796;2024-03-17T11:43:04;11.40;99.90
54126;DHT22;40360;52.992;6.796;2024-03-17T11:45:31;11.40;99.90
54126;DHT22;40360;52.992;6.796;2024-03-17T11:47:57;11.50;99.90
54126;DHT22;40360;52.992;6.796;2024-03-17T11:50:23;11.50;99.90
54126;DHT22;40360;52.992;6.796;2024-03-17T11:52:58;11.50;99.90
54126;DHT22;40360;52.992;6.796;2024-03-17T11:55:24;11.50;99.90
54126;DHT22;40360;52.992;6.796;2024-03-17T11:57:56;11.50;99.90
54126;DHT22;40360;52.992;6.796;2024-03-17T12:00:23;11.50;99.90
54126;DHT22;40360;52.992;6.796;2024-03-17T12:02:53;11.60;99.90
54126;DHT22;40360;52.992;6.796;2024-03-17T12:05:21;11.60;99.90
54126;DHT22;40360;52.992;6.796;2024-03-17T12:07:47;11.60;99.90
54126;DHT22;40360;52.992;6.796;2024-03-17T12:10:16;11.60;99.90
54126;DHT22;40360;52.992;6.796;2024-03-17T12:12:47;11.60;99.90
54126;DHT22;40360;52.992;6.796;2024-03-17T12:15:17;11.60;99.90
54126;DHT22;40360;52.992;6.796;2024-03-17T12:17:44;11.60;99.90
54126;DHT22;40360;52.992;6.796;2024-03-17T12:20:20;11.50;99.90
54126;DHT22;40360;52.992;6.796;2024-03-17T12:22:47;11.50;99.90
54126;DHT22;40360;52.992;6.796;2024-03-17T12:25:22;11.40;99.90
54126;DHT22;40360;52.992;6.796;2024-03-17T12:27:52;11.40;99.90
54126;DHT22;40360;52.992;6.796;2024-03-17T12:30:18;11.40;99.90
54126;DHT22;40360;52.992;6.796;2024-03-17T12:32:44;11.40;99.90
54126;DHT22;40360;52.992;6.796;2024-03-17T12:35:14;11.40;99.90
54126;DHT22;40360;52.992;6.796;2024-03-17T12:37:44;11.40;99.90
54126;DHT22;40360;52.992;6.796;2024-03-17T12:40:23;11.50;99.90
54126;DHT22;40360;52.992;6.796;2024-03-17T12:42:50;11.50;99.90
54126;DHT22;40360;52.992;6.796;2024-03-17T12:45:20;11.60;99.90
54126;DHT22;40360;52.992;6.796;2024-03-17T12:48:00;11.60;99.90
54126;DHT22;40360;52.992;6.796;2024-03-17T12:50:26;11.70;99.90
54126;DHT22;40360;52.992;6.796;2024-03-17T12:52:56;11.80;99.90
54126;DHT22;40360;52.992;6.796;2024-03-17T12:55:22;11.80;99.90
54126;DHT22;40360;52.992;6.796;2024-03-17T12:58:08;11.90;99.90
54126;DHT22;40360;52.992;6.796;2024-03-17T13:01:06;11.90;99.90
54126;DHT22;40360;52.992;6.796;2024-03-17T13:03:36;11.90;99.90
54126;DHT22;40360;52.992;6.796;2024-03-17T13:06:05;11.90;99.90
54126;DHT22;40360;52.992;6.796;2024-03-17T13:08:33;11.90;99.90
54126;DHT22;40360;52.992;6.796;2024-03-17T13:10:59;12.00;99.90
54126;DHT22;40360;52.992;6.796;2024-03-17T13:13:25;11.90;99.90
54126;DHT22;40360;52.992;6.796;2024-03-17T13:15:51;12.00;99.90
54126;DHT22;40360;52.992;6.796;2024-03-17T13:18:19;11.90;99.90
54126;DHT22;40360;52.992;6.796;2024-03-17T13:20:55;11.90;99.90
54126;DHT22;40360;52.992;6.796;2024-03-17T13:23:38;12.00;99.90
54126;DHT22;40360;52.992;6.796;2024-03-17T13:26:04;12.00;99.90
54126;DHT22;40360;52.992;6.796;2024-03-17T13:28:30;12.00;99.90
54126;DHT22;40360;52.992;6.796;2024-03-17T13:30:57;12.00;99.90
54126;DHT22;40360;52.992;6.796;2024-03-17T13:33:26;12.00;99.90
54126;DHT22;40360;52.992;6.796;2024-03-17T13:36:03;12.00;99.90
54126;DHT22;40360;52.992;6.796;2024-03-17T13:38:29;12.00;99.90
54126;DHT22;40360;52.992;6.796;2024-03-17T13:40:55;12.00;99.90
54126;DHT22;40360;52.992;6.796;2024-03-17T13:43:23;12.00;99.90
54126;DHT22;40360;52.992;6.796;2024-03-17T13:45:49;12.00;99.90
54126;DHT22;40360;52.992;6.796;2024-03-17T13:48:15;12.00;99.90
54126;DHT22;40360;52.992;6.796;2024-03-17T13:50:41;12.10;99.90
54126;DHT22;40360;52.992;6.796;2024-03-17T13:53:10;12.10;99.90
54126;DHT22;40360;52.992;6.796;2024-03-17T13:55:42;12.10;99.90
54126;DHT22;40360;52.992;6.796;2024-03-17T13:58:14;12.10;99.90
54126;DHT22;40360;52.992;6.796;2024-03-17T14:00:42;12.00;99.90
54126;DHT22;40360;52.992;6.796;2024-03-17T14:03:10;12.00;99.90
54126;DHT22;40360;52.992;6.796;2024-03-17T14:05:38;12.00;99.90
54126;DHT22;40360;52.992;6.796;2024-03-17T14:08:07;12.10;99.90
54126;DHT22;40360;52.992;6.796;2024-03-17T14:10:34;12.00;99.90
54126;DHT22;40360;52.992;6.796;2024-03-17T14:13:02;12.00;99.90
54126;DHT22;40360;52.992;6.796;2024-03-17T14:15:28;12.00;99.90
54126;DHT22;40360;52.992;6.796;2024-03-17T14:18:01;12.00;99.90
54126;DHT22;40360;52.992;6.796;2024-03-17T14:20:33;12.00;99.90
54126;DHT22;40360;52.992;6.796;2024-03-17T14:23:00;12.00;99.90
54126;DHT22;40360;52.992;6.796;2024-03-17T14:25:29;12.00;99.90
54126;DHT22;40360;52.992;6.796;2024-03-17T14:27:55;11.90;99.90
54126;DHT22;40360;52.992;6.796;2024-03-17T14:30:20;12.00;99.90
54126;DHT22;40360;52.992;6.796;2024-03-17T14:32:47;11.90;99.90
54126;DHT22;40360;52.992;6.796;2024-03-17T14:35:14;11.90;99.90
54126;DHT22;40360;52.992;6.796;2024-03-17T14:37:41;11.80;99.90
54126;DHT22;40360;52.992;6.796;2024-03-17T14:40:09;11.80;99.90
54126;DHT22;40360;52.992;6.796;2024-03-17T14:42:46;11.70;99.90
54126;DHT22;40360;52.992;6.796;2024-03-17T14:45:11;11.70;99.90
54126;DHT22;40360;52.992;6.796;2024-03-17T14:48:12;11.70;99.90
54126;DHT22;40360;52.992;6.796;2024-03-17T14:50:39;11.70;99.90
54126;DHT22;40360;52.992;6.796;2024-03-17T14:53:06;11.70;99.90
54126;DHT22;40360;52.992;6.796;2024-03-17T14:55:32;11.70;99.90
54126;DHT22;40360;52.992;6.796;2024-03-17T14:57:58;11.60;99.90
54126;DHT22;40360;52.992;6.796;2024-03-17T15:00:27;11.60;99.90
54126;DHT22;40360;52.992;6.796;2024-03-17T15:02:56;11.70;99.90
54126;DHT22;40360;52.992;6.796;2024-03-17T15:05:50;11.60;99.90
54126;DHT22;40360;52.992;6.796;2024-03-17T15:08:29;11.60;99.90
54126;DHT22;40360;52.992;6.796;2024-03-17T15:11:00;11.60;99.90
54126;DHT22;40360;52.992;6.796;2024-03-17T15:13:27;11.60;99.90
54126;DHT22;40360;52.992;6.796;2024-03-17T15:15:55;11.60;99.90
54126;DHT22;40360;52.992;6.796;2024-03-17T15:18:22;11.60;99.90
54126;DHT22;40360;52.992;6.796;2024-03-17T15:20:55;11.60;99.90
54126;DHT22;40360;52.992;6.796;2024-03-17T15:23:22;11.60;99.90
54126;DHT22;40360;52.992;6.796;2024-03-17T15:25:49;11.50;99.90
54126;DHT22;40360;52.992;6.796;2024-03-17T15:28:17;11.50;99.90
54126;DHT22;40360;52.992;6.796;2024-03-17T15:30:48;11.50;99.90
54126;DHT22;40360;52.992;6.796;2024-03-17T15:33:14;11.50;99.90
54126;DHT22;40360;52.992;6.796;2024-03-17T15:35:44;11.50;99.90
54126;DHT22;40360;52.992;6.796;2024-03-17T15:38:35;11.40;99.90
54126;DHT22;40360;52.992;6.796;2024-03-17T15:41:10;11.40;99.90
54126;DHT22;40360;52.992;6.796;2024-03-17T15:43:40;11.40;99.90
54126;DHT22;40360;52.992;6.796;2024-03-17T15:46:23;11.40;99.90
54126;DHT22;40360;52.992;6.796;2024-03-17T15:48:53;11.40;99.90
54126;DHT22;40360;52.992;6.796;2024-03-17T15:51:23;11.30;99.90
54126;DHT22;40360;52.992;6.796;2024-03-17T15:53:49;11.30;99.90
54126;DHT22;40360;52.992;6.796;2024-03-17T15:56:15;11.30;99.90
54126;DHT22;40360;52.992;6.796;2024-03-17T15:58:42;11.30;99.90
54126;DHT22;40360;52.992;6.796;2024-03-17T16:01:08;11.30;99.90
54126;DHT22;40360;52.992;6.796;2024-03-17T16:03:51;11.30;99.90
54126;DHT22;40360;52.992;6.796;2024-03-17T16:06:19;11.30;99.90
54126;DHT22;40360;52.992;6.796;2024-03-17T16:08:51;11.30;99.90
54126;DHT22;40360;52.992;6.796;2024-03-17T16:11:31;11.20;99.90